sensor_id;sensor_type;location;lat;lon;timestamp;pressure;altitude;pressure_sealevel;temperature;humidity
21956;BME280;11142;49.930;8.606;2023-02-28T00:00:54;101168.34;;;-0.72;100.00
21956;BME280;11142;49.930;8.606;2023-02-28T00:03:23;101175.13;;;-0.72;100.00
21956;BME280;11142;49.930;8.606;2023-02-28T00:05:52;101175.97;;;-0.75;100.00
21956;BME280;11142;49.930;8.606;2023-02-28T00:08:19;101181.94;;;-0.71;100.00
21956;BME280;11142;49.930;8.606;2023-02-28T00:10:47;101172.59;;;-0.71;100.00
21956;BME280;11142;49.930;8.606;2023-02-28T00:13:18;101176.00;;;-0.76;100.00
21956;BME280;11142;49.930;8.606;2023-02-28T00:15:48;101178.53;;;-0.76;100.00
21956;BME280;11142;49.930;8.606;2023-02-28T00:18:27;101176.84;;;-0.83;100.00
21956;BME280;11142;49.930;8.606;2023-02-28T00:20:57;101180.22;;;-0.81;100.00
21956;BME280;11142;49.930;8.606;2023-02-28T00:23:25;101184.47;;;-0.85;100.00
21956;BME280;11142;49.930;8.606;2023-02-28T00:25:53;101176.84;;;-0.80;100.00
21956;BME280;11142;49.930;8.606;2023-02-28T00:28:22;101176.84;;;-0.77;100.00
21956;BME280;11142;49.930;8.606;2023-02-28T00:30:50;101185.31;;;-0.75;100.00
21956;BME280;11142;49.930;8.606;2023-02-28T00:33:19;101176.00;;;-0.73;100.00
21956;BME280;11142;49.930;8.606;2023-02-28T00:35:48;101180.22;;;-0.81;100.00
21956;BME280;11142;49.930;8.606;2023-02-28T00:38:16;101181.94;;;-0.77;100.00
21956;BME280;11142;49.930;8.606;2023-02-28T00:40:44;101181.94;;;-0.83;100.00
21956;BME280;11142;49.930;8.606;2023-02-28T00:43:13;101178.50;;;-0.85;100.00
21956;BME280;11142;49.930;8.606;2023-02-28T00:45:43;101173.44;;;-0.84;100.00
21956;BME280;11142;49.930;8.606;2023-02-28T00:48:11;101172.59;;;-0.86;100.00
21956;BME280;11142;49.930;8.606;2023-02-28T00:50:39;101175.97;;;-0.88;100.00
21956;BME280;11142;49.930;8.606;2023-02-28T00:53:10;101183.59;;;-0.79;100.00
21956;BME280;11142;49.930;8.606;2023-02-28T00:55:38;101176.84;;;-0.86;100.00
21956;BME280;11142;49.930;8.606;2023-02-28T00:58:06;101181.94;;;-0.80;100.00
21956;BME280;11142;49.930;8.606;2023-02-28T01:00:34;101176.00;;;-0.76;100.00
21956;BME280;11142;49.930;8.606;2023-02-28T01:03:04;101180.22;;;-0.72;100.00
21956;BME280;11142;49.930;8.606;2023-02-28T01:05:33;101181.91;;;-0.79;100.00
21956;BME280;11142;49.930;8.606;2023-02-28T01:08:01;101178.53;;;-0.76;100.00
21956;BME280;11142;49.930;8.606;2023-02-28T01:10:30;101183.63;;;-0.76;100.00
21956;BME280;11142;49.930;8.606;2023-02-28T01:12:59;101182.78;;;-0.77;100.00
21956;BME280;11142;49.930;8.606;2023-02-28T01:15:26;101186.16;;;-0.66;100.00
21956;BME280;11142;49.930;8.606;2023-02-28T01:17:54;101176.81;;;-0.65;100.00
21956;BME280;11142;49.930;8.606;2023-02-28T01:20:26;101178.53;;;-0.70;100.00
21956;BME280;11142;49.930;8.606;2023-02-28T01:22:55;101168.34;;;-0.87;100.00
21956;BME280;11142;49.930;8.606;2023-02-28T01:25:23;101173.44;;;-0.81;100.00
21956;BME280;11142;49.930;8.606;2023-02-28T01:27:52;101176.84;;;-0.89;100.00
21956;BME280;11142;49.930;8.606;2023-02-28T01:30:20;101163.25;;;-0.87;100.00
21956;BME280;11142;49.930;8.606;2023-02-28T01:32:48;101170.03;;;-0.80;100.00
21956;BME280;11142;49.930;8.606;2023-02-28T01:35:18;101171.75;;;-0.89;100.00
21956;BME280;11142;49.930;8.606;2023-02-28T01:37:46;101170.88;;;-0.94;100.00
21956;BME280;11142;49.930;8.606;2023-02-28T01:40:17;101158.13;;;-0.97;100.00
21956;BME280;11142;49.930;8.606;2023-02-28T01:42:46;101160.69;;;-0.93;100.00
21956;BME280;11142;49.930;8.606;2023-02-28T01:45:20;101154.72;;;-1.01;100.00
21956;BME280;11142;49.930;8.606;2023-02-28T01:47:51;101164.09;;;-0.97;100.00
21956;BME280;11142;49.930;8.606;2023-02-28T01:50:20;101155.59;;;-0.97;100.00
21956;BME280;11142;49.930;8.606;2023-02-28T01:52:50;101162.38;;;-1.07;100.00
21956;BME280;11142;49.930;8.606;2023-02-28T01:55:19;101158.13;;;-1.13;100.00
21956;BME280;11142;49.930;8.606;2023-02-28T01:57:57;101158.97;;;-1.23;100.00
21956;BME280;11142;49.930;8.606;2023-02-28T02:00:27;101146.22;;;-1.32;100.00
21956;BME280;11142;49.930;8.606;2023-02-28T02:02:57;101150.47;;;-1.23;100.00
21956;BME280;11142;49.930;8.606;2023-02-28T02:05:27;101149.66;;;-1.21;100.00
21956;BME280;11142;49.930;8.606;2023-02-28T02:08:01;101149.59;;;-1.30;100.00
21956;BME280;11142;49.930;8.606;2023-02-28T02:10:31;101150.44;;;-1.29;100.00
21956;BME280;11142;49.930;8.606;2023-02-28T02:13:16;101147.91;;;-1.34;100.00
21956;BME280;11142;49.930;8.606;2023-02-28T02:15:52;101146.22;;;-1.35;100.00
21956;BME280;11142;49.930;8.606;2023-02-28T02:18:25;101143.66;;;-1.35;100.00
21956;BME280;11142;49.930;8.606;2023-02-28T02:21:08;101139.41;;;-1.40;100.00
21956;BME280;11142;49.930;8.606;2023-02-28T02:23:51;101138.56;;;-1.47;100.00
21956;BME280;11142;49.930;8.606;2023-02-28T02:26:36;101140.25;;;-1.38;100.00
21956;BME280;11142;49.930;8.606;2023-02-28T02:29:24;101132.66;;;-1.37;100.00
21956;BME280;11142;49.930;8.606;2023-02-28T02:32:06;101127.56;;;-1.40;100.00
21956;BME280;11142;49.930;8.606;2023-02-28T02:34:41;101138.56;;;-1.38;100.00
21956;BME280;11142;49.930;8.606;2023-02-28T02:37:13;101130.91;;;-1.48;100.00
21956;BME280;11142;49.930;8.606;2023-02-28T02:39:45;101125.81;;;-1.53;100.00
21956;BME280;11142;49.930;8.606;2023-02-28T02:42:18;101131.75;;;-1.55;100.00
21956;BME280;11142;49.930;8.606;2023-02-28T02:44:50;101134.28;;;-1.63;100.00
21956;BME280;11142;49.930;8.606;2023-02-28T02:47:22;101123.25;;;-1.54;100.00
21956;BME280;11142;49.930;8.606;2023-02-28T02:49:53;101129.19;;;-1.57;100.00
21956;BME280;11142;49.930;8.606;2023-02-28T02:52:23;101130.88;;;-1.57;100.00
21956;BME280;11142;49.930;8.606;2023-02-28T02:54:53;101126.63;;;-1.65;100.00
21956;BME280;11142;49.930;8.606;2023-02-28T02:57:23;101132.56;;;-1.64;100.00
21956;BME280;11142;49.930;8.606;2023-02-28T02:59:52;101126.63;;;-1.65;100.00
21956;BME280;11142;49.930;8.606;2023-02-28T03:02:23;101128.34;;;-1.68;100.00
21956;BME280;11142;49.930;8.606;2023-02-28T03:04:58;101134.25;;;-1.66;100.00
21956;BME280;11142;49.930;8.606;2023-02-28T03:07:27;101133.41;;;-1.68;100.00
21956;BME280;11142;49.930;8.606;2023-02-28T03:09:55;101135.13;;;-1.66;100.00
21956;BME280;11142;49.930;8.606;2023-02-28T03:12:27;101130.88;;;-1.65;100.00
21956;BME280;11142;49.930;8.606;2023-02-28T03:15:02;101127.47;;;-1.64;100.00
21956;BME280;11142;49.930;8.606;2023-02-28T03:17:41;101124.91;;;-1.73;100.00
21956;BME280;11142;49.930;8.606;2023-02-28T03:20:23;101122.34;;;-1.76;100.00
21956;BME280;11142;49.930;8.606;2023-02-28T03:23:00;101122.38;;;-1.78;100.00
21956;BME280;11142;49.930;8.606;2023-02-28T03:25:31;101123.22;;;-1.76;100.00
21956;BME280;11142;49.930;8.606;2023-02-28T03:28:02;101124.06;;;-1.75;100.00
21956;BME280;11142;49.930;8.606;2023-02-28T03:30:35;101123.19;;;-1.79;100.00
21956;BME280;11142;49.930;8.606;2023-02-28T03:33:05;101124.06;;;-1.68;100.00
21956;BME280;11142;49.930;8.606;2023-02-28T03:35:39;101119.00;;;-1.60;100.00
21956;BME280;11142;49.930;8.606;2023-02-28T03:38:10;101129.22;;;-1.52;100.00
21956;BME280;11142;49.930;8.606;2023-02-28T03:40:41;101125.75;;;-1.71;100.00
21956;BME280;11142;49.930;8.606;2023-02-28T03:43:12;101124.06;;;-1.75;100.00
21956;BME280;11142;49.930;8.606;2023-02-28T03:45:41;101125.75;;;-1.71;100.00
21956;BME280;11142;49.930;8.606;2023-02-28T03:48:11;101129.94;;;-1.84;100.00
21956;BME280;11142;49.930;8.606;2023-02-28T03:50:42;101128.28;;;-1.85;100.00
21956;BME280;11142;49.930;8.606;2023-02-28T03:53:12;101134.25;;;-1.72;100.00
21956;BME280;11142;49.930;8.606;2023-02-28T03:55:42;101134.28;;;-1.63;100.00
21956;BME280;11142;49.930;8.606;2023-02-28T03:58:15;101137.66;;;-1.64;100.00
21956;BME280;11142;49.930;8.606;2023-02-28T04:00:45;101137.69;;;-1.59;100.00
21956;BME280;11142;49.930;8.606;2023-02-28T04:03:18;101137.66;;;-1.61;100.00
21956;BME280;11142;49.930;8.606;2023-02-28T04:05:51;101141.00;;;-1.74;100.00
21956;BME280;11142;49.930;8.606;2023-02-28T04:08:20;101139.28;;;-1.86;100.00
21956;BME280;11142;49.930;8.606;2023-02-28T04:10:53;101135.00;;;-1.90;100.00
21956;BME280;11142;49.930;8.606;2023-02-28T04:13:22;101140.16;;;-1.78;100.00
21956;BME280;11142;49.930;8.606;2023-02-28T04:15:50;101144.41;;;-1.74;100.00
21956;BME280;11142;49.930;8.606;2023-02-28T04:18:18;101136.78;;;-1.75;100.00
21956;BME280;11142;49.930;8.606;2023-02-28T04:20:46;101134.22;;;-1.77;100.00
21956;BME280;11142;49.930;8.606;2023-02-28T04:23:15;101140.16;;;-1.79;100.00
21956;BME280;11142;49.930;8.606;2023-02-28T04:25:43;101138.50;;;-1.67;100.00
21956;BME280;11142;49.930;8.606;2023-02-28T04:28:12;101135.13;;;-1.58;100.00
21956;BME280;11142;49.930;8.606;2023-02-28T04:30:40;101140.25;;;-1.47;100.00
21956;BME280;11142;49.930;8.606;2023-02-28T04:33:08;101136.88;;;-1.34;100.00
21956;BME280;11142;49.930;8.606;2023-02-28T04:35:36;101141.13;;;-1.29;100.00
21956;BME280;11142;49.930;8.606;2023-02-28T04:38:04;101135.19;;;-1.32;100.00
21956;BME280;11142;49.930;8.606;2023-02-28T04:40:33;101135.19;;;-1.28;100.00
21956;BME280;11142;49.930;8.606;2023-02-28T04:43:03;101139.41;;;-1.30;100.00
21956;BME280;11142;49.930;8.606;2023-02-28T04:45:32;101133.50;;;-1.27;100.00
21956;BME280;11142;49.930;8.606;2023-02-28T04:48:00;101131.78;;;-1.34;100.00
21956;BME280;11142;49.930;8.606;2023-02-28T04:50:28;101134.34;;;-1.24;100.00
21956;BME280;11142;49.930;8.606;2023-02-28T04:52:56;101133.50;;;-1.23;100.00
21956;BME280;11142;49.930;8.606;2023-02-28T04:55:24;101133.50;;;-1.23;100.00
21956;BME280;11142;49.930;8.606;2023-02-28T04:57:53;101132.66;;;-1.34;100.00
21956;BME280;11142;49.930;8.606;2023-02-28T05:00:21;101136.00;;;-1.42;100.00
21956;BME280;11142;49.930;8.606;2023-02-28T05:02:49;101140.25;;;-1.44;100.00
21956;BME280;11142;49.930;8.606;2023-02-28T05:05:16;101135.16;;;-1.44;100.00
21956;BME280;11142;49.930;8.606;2023-02-28T05:07:45;101137.75;;;-1.34;100.00
21956;BME280;11142;49.930;8.606;2023-02-28T05:10:13;101140.28;;;-1.37;100.00
21956;BME280;11142;49.930;8.606;2023-02-28T05:12:41;101143.66;;;-1.32;100.00
21956;BME280;11142;49.930;8.606;2023-02-28T05:15:10;101140.28;;;-1.31;100.00
21956;BME280;11142;49.930;8.606;2023-02-28T05:17:39;101138.56;;;-1.42;100.00
21956;BME280;11142;49.930;8.606;2023-02-28T05:20:08;101143.63;;;-1.48;100.00
21956;BME280;11142;49.930;8.606;2023-02-28T05:22:41;101144.47;;;-1.48;100.00
21956;BME280;11142;49.930;8.606;2023-02-28T05:25:10;101141.94;;;-1.55;100.00
21956;BME280;11142;49.930;8.606;2023-02-28T05:27:39;101142.75;;;-1.61;100.00
21956;BME280;11142;49.930;8.606;2023-02-28T05:30:07;101145.28;;;-1.64;100.00
21956;BME280;11142;49.930;8.606;2023-02-28T05:32:38;101142.72;;;-1.75;100.00
21956;BME280;11142;49.930;8.606;2023-02-28T05:35:09;101142.69;;;-1.82;100.00
21956;BME280;11142;49.930;8.606;2023-02-28T05:37:38;101143.50;;;-1.86;100.00
21956;BME280;11142;49.930;8.606;2023-02-28T05:40:06;101140.97;;;-1.83;100.00
21956;BME280;11142;49.930;8.606;2023-02-28T05:42:36;101148.63;;;-1.85;100.00
21956;BME280;11142;49.930;8.606;2023-02-28T05:45:05;101149.41;;;-1.93;100.00
21956;BME280;11142;49.930;8.606;2023-02-28T05:47:34;101146.03;;;-1.89;100.00
21956;BME280;11142;49.930;8.606;2023-02-28T05:50:04;101150.31;;;-1.79;100.00
21956;BME280;11142;49.930;8.606;2023-02-28T05:52:32;101156.22;;;-1.86;100.00
21956;BME280;11142;49.930;8.606;2023-02-28T05:55:03;101155.34;;;-2.00;100.00
21956;BME280;11142;49.930;8.606;2023-02-28T05:57:31;101157.81;;;-2.12;100.00
21956;BME280;11142;49.930;8.606;2023-02-28T05:59:59;101158.63;;;-2.15;100.00
21956;BME280;11142;49.930;8.606;2023-02-28T06:02:38;101161.19;;;-2.12;100.00
21956;BME280;11142;49.930;8.606;2023-02-28T06:05:08;101160.38;;;-2.09;100.00
21956;BME280;11142;49.930;8.606;2023-02-28T06:07:40;101162.06;;;-2.07;100.00
21956;BME280;11142;49.930;8.606;2023-02-28T06:10:09;101162.03;;;-2.11;100.00
21956;BME280;11142;49.930;8.606;2023-02-28T06:12:37;101168.00;;;-2.05;100.00
21956;BME280;11142;49.930;8.606;2023-02-28T06:15:06;101162.09;;;-2.01;100.00
21956;BME280;11142;49.930;8.606;2023-02-28T06:17:34;101163.03;;;-1.81;100.00
21956;BME280;11142;49.930;8.606;2023-02-28T06:20:02;101170.69;;;-1.73;100.00
21956;BME280;11142;49.930;8.606;2023-02-28T06:25:01;101174.06;;;-1.79;100.00
21956;BME280;11142;49.930;8.606;2023-02-28T06:27:28;101170.69;;;-1.70;100.00
21956;BME280;11142;49.930;8.606;2023-02-28T06:29:58;101174.94;;;-1.68;100.00
21956;BME280;11142;49.930;8.606;2023-02-28T06:32:25;101174.06;;;-1.79;100.00
21956;BME280;11142;49.930;8.606;2023-02-28T06:34:53;101180.00;;;-1.78;100.00
21956;BME280;11142;49.930;8.606;2023-02-28T06:37:23;101185.97;;;-1.75;100.00
21956;BME280;11142;49.930;8.606;2023-02-28T06:39:53;101185.16;;;-1.57;100.00
21956;BME280;11142;49.930;8.606;2023-02-28T06:42:23;101190.28;;;-1.48;100.00
21956;BME280;11142;49.930;8.606;2023-02-28T06:44:55;101184.38;;;-1.39;100.00
21956;BME280;11142;49.930;8.606;2023-02-28T06:47:22;101187.69;;;-1.58;100.00
21956;BME280;11142;49.930;8.606;2023-02-28T06:49:50;101184.38;;;-1.39;100.00
21956;BME280;11142;49.930;8.606;2023-02-28T06:52:18;101188.69;;;-1.16;100.00
21956;BME280;11142;49.930;8.606;2023-02-28T06:54:46;101198.06;;;-0.93;100.00
21956;BME280;11142;49.930;8.606;2023-02-28T06:57:13;101197.19;;;-0.94;100.00
21956;BME280;11142;49.930;8.606;2023-02-28T06:59:43;101198.06;;;-0.80;100.00
21956;BME280;11142;49.930;8.606;2023-02-28T07:02:12;101202.31;;;-0.68;100.00
21956;BME280;11142;49.930;8.606;2023-02-28T07:04:40;101202.31;;;-0.65;100.00
21956;BME280;11142;49.930;8.606;2023-02-28T07:07:11;101206.56;;;-0.67;100.00
21956;BME280;11142;49.930;8.606;2023-02-28T07:09:38;101204.00;;;-0.44;100.00
21956;BME280;11142;49.930;8.606;2023-02-28T07:12:07;101206.53;;;-0.26;100.00
21956;BME280;11142;49.930;8.606;2023-02-28T07:14:36;101202.19;;;0.08;100.00
21956;BME280;11142;49.930;8.606;2023-02-28T07:17:05;101199.59;;;0.20;100.00
21956;BME280;11142;49.930;8.606;2023-02-28T07:19:36;101198.81;;;0.06;100.00
21956;BME280;11142;49.930;8.606;2023-02-28T07:22:04;101217.44;;;0.29;100.00
21956;BME280;11142;49.930;8.606;2023-02-28T07:24:32;101217.56;;;0.00;100.00
21956;BME280;11142;49.930;8.606;2023-02-28T07:27:00;101209.72;;;0.48;100.00
21956;BME280;11142;49.930;8.606;2023-02-28T07:29:28;101207.84;;;0.82;99.96
21956;BME280;11142;49.930;8.606;2023-02-28T07:31:56;101213.13;;;0.50;100.00
21956;BME280;11142;49.930;8.606;2023-02-28T07:34:25;101207.81;;;0.87;100.00
21956;BME280;11142;49.930;8.606;2023-02-28T07:36:53;101205.25;;;0.88;96.12
21956;BME280;11142;49.930;8.606;2023-02-28T07:39:21;101217.38;;;0.53;96.85
21956;BME280;11142;49.930;8.606;2023-02-28T07:41:49;101214.63;;;0.83;97.16
21956;BME280;11142;49.930;8.606;2023-02-28T07:44:17;101208.44;;;1.18;92.46
21956;BME280;11142;49.930;8.606;2023-02-28T07:46:44;101214.41;;;1.20;88.49
21956;BME280;11142;49.930;8.606;2023-02-28T07:49:13;101212.44;;;1.53;86.43
21956;BME280;11142;49.930;8.606;2023-02-28T07:51:44;101217.53;;;1.53;86.02
21956;BME280;11142;49.930;8.606;2023-02-28T07:54:11;101206.88;;;1.99;83.70
21956;BME280;11142;49.930;8.606;2023-02-28T07:56:39;101209.44;;;1.99;81.52
21956;BME280;11142;49.930;8.606;2023-02-28T07:59:07;101215.16;;;2.22;80.75
21956;BME280;11142;49.930;8.606;2023-02-28T08:01:35;101219.69;;;1.97;80.64
21956;BME280;11142;49.930;8.606;2023-02-28T08:04:04;101209.22;;;2.22;77.59
21956;BME280;11142;49.930;8.606;2023-02-28T08:06:32;101222.75;;;2.31;78.55
21956;BME280;11142;49.930;8.606;2023-02-28T08:09:01;101218.97;;;1.86;79.04
21956;BME280;11142;49.930;8.606;2023-02-28T08:11:29;101221.88;;;2.34;76.73
21956;BME280;11142;49.930;8.606;2023-02-28T08:13:57;101220.56;;;1.96;76.60
21956;BME280;11142;49.930;8.606;2023-02-28T08:16:25;101215.03;;;2.33;75.77
21956;BME280;11142;49.930;8.606;2023-02-28T08:18:53;101216.06;;;2.87;74.55
21956;BME280;11142;49.930;8.606;2023-02-28T08:21:21;101219.47;;;2.86;71.69
21956;BME280;11142;49.930;8.606;2023-02-28T08:23:51;101217.06;;;2.75;73.03
21956;BME280;11142;49.930;8.606;2023-02-28T08:26:20;101217.25;;;3.21;69.85
21956;BME280;11142;49.930;8.606;2023-02-28T08:28:48;101216.69;;;3.02;66.75
21956;BME280;11142;49.930;8.606;2023-02-28T08:31:16;101217.78;;;2.85;68.45
21956;BME280;11142;49.930;8.606;2023-02-28T08:33:44;101214.34;;;2.87;68.67
21956;BME280;11142;49.930;8.606;2023-02-28T08:36:13;101218.69;;;2.82;69.33
21956;BME280;11142;49.930;8.606;2023-02-28T08:38:42;101223.28;;;3.18;67.64
21956;BME280;11142;49.930;8.606;2023-02-28T08:41:12;101214.59;;;3.78;64.63
21956;BME280;11142;49.930;8.606;2023-02-28T08:43:41;101220.81;;;3.11;66.10
21956;BME280;11142;49.930;8.606;2023-02-28T08:46:10;101208.50;;;3.34;63.99
21956;BME280;11142;49.930;8.606;2023-02-28T08:48:39;101204.19;;;2.80;65.13
21956;BME280;11142;49.930;8.606;2023-02-28T08:51:08;101212.66;;;2.85;65.64
21956;BME280;11142;49.930;8.606;2023-02-28T08:53:38;101208.91;;;3.08;65.03
21956;BME280;11142;49.930;8.606;2023-02-28T08:56:12;101212.41;;;3.04;65.58
21956;BME280;11142;49.930;8.606;2023-02-28T08:58:45;101212.56;;;3.46;63.60
21956;BME280;11142;49.930;8.606;2023-02-28T09:01:14;101221.88;;;2.98;64.86
21956;BME280;11142;49.930;8.606;2023-02-28T09:03:44;101219.84;;;3.18;64.79
21956;BME280;11142;49.930;8.606;2023-02-28T09:06:13;101217.44;;;3.64;61.85
21956;BME280;11142;49.930;8.606;2023-02-28T09:08:42;101216.09;;;3.42;61.30
21956;BME280;11142;49.930;8.606;2023-02-28T09:11:13;101208.88;;;3.62;62.22
21956;BME280;11142;49.930;8.606;2023-02-28T09:13:40;101208.19;;;3.54;62.66
21956;BME280;11142;49.930;8.606;2023-02-28T09:16:10;101200.38;;;4.07;61.00
21956;BME280;11142;49.930;8.606;2023-02-28T09:18:39;101198.97;;;3.91;59.44
21956;BME280;11142;49.930;8.606;2023-02-28T09:21:07;101208.38;;;3.42;60.70
21956;BME280;11142;49.930;8.606;2023-02-28T09:23:35;101204.00;;;3.47;61.45
21956;BME280;11142;49.930;8.606;2023-02-28T09:26:05;101210.31;;;3.78;60.97
21956;BME280;11142;49.930;8.606;2023-02-28T09:28:34;101210.00;;;3.96;60.32
21956;BME280;11142;49.930;8.606;2023-02-28T09:31:02;101196.44;;;3.88;58.16
21956;BME280;11142;49.930;8.606;2023-02-28T09:33:32;101201.59;;;3.88;58.69
21956;BME280;11142;49.930;8.606;2023-02-28T09:36:02;101204.09;;;3.91;58.02
21956;BME280;11142;49.930;8.606;2023-02-28T09:38:30;101198.66;;;4.08;57.29
21956;BME280;11142;49.930;8.606;2023-02-28T09:40:59;101202.50;;;4.71;56.96
21956;BME280;11142;49.930;8.606;2023-02-28T09:43:28;101204.78;;;4.85;54.64
21956;BME280;11142;49.930;8.606;2023-02-28T09:46:00;101193.56;;;5.24;52.55
21956;BME280;11142;49.930;8.606;2023-02-28T09:48:35;101190.59;;;5.40;51.81
21956;BME280;11142;49.930;8.606;2023-02-28T09:51:09;101197.44;;;5.74;50.26
21956;BME280;11142;49.930;8.606;2023-02-28T09:53:40;101200.31;;;5.64;48.25
21956;BME280;11142;49.930;8.606;2023-02-28T09:56:14;101198.28;;;5.76;47.34
21956;BME280;11142;49.930;8.606;2023-02-28T09:58:47;101171.84;;;5.68;46.69
21956;BME280;11142;49.930;8.606;2023-02-28T10:01:19;101194.69;;;6.14;45.11
21956;BME280;11142;49.930;8.606;2023-02-28T10:03:51;101202.53;;;6.10;45.20
21956;BME280;11142;49.930;8.606;2023-02-28T10:06:26;101200.59;;;6.49;43.96
21956;BME280;11142;49.930;8.606;2023-02-28T10:09:00;101197.25;;;7.02;42.96
21956;BME280;11142;49.930;8.606;2023-02-28T10:11:29;101206.06;;;6.67;43.41
21956;BME280;11142;49.930;8.606;2023-02-28T10:13:59;101213.06;;;7.72;42.27
21956;BME280;11142;49.930;8.606;2023-02-28T10:16:37;101198.00;;;7.06;42.06
21956;BME280;11142;49.930;8.606;2023-02-28T10:19:11;101208.88;;;7.68;41.74
21956;BME280;11142;49.930;8.606;2023-02-28T10:21:41;101201.41;;;7.34;42.19
21956;BME280;11142;49.930;8.606;2023-02-28T10:24:16;101214.75;;;6.65;42.78
21956;BME280;11142;49.930;8.606;2023-02-28T10:26:46;101204.81;;;6.80;42.86
21956;BME280;11142;49.930;8.606;2023-02-28T10:29:15;101197.91;;;6.53;43.48
21956;BME280;11142;49.930;8.606;2023-02-28T10:31:42;101213.75;;;6.09;44.21
21956;BME280;11142;49.930;8.606;2023-02-28T10:34:12;101207.19;;;5.28;45.40
21956;BME280;11142;49.930;8.606;2023-02-28T10:36:40;101215.59;;;4.59;47.68
21956;BME280;11142;49.930;8.606;2023-02-28T10:41:59;101192.00;;;6.48;42.61
21956;BME280;11142;49.930;8.606;2023-02-28T10:44:27;101199.84;;;6.14;43.99
21956;BME280;11142;49.930;8.606;2023-02-28T10:46:55;101205.38;;;7.95;40.92
21956;BME280;11142;49.930;8.606;2023-02-28T10:49:28;101199.72;;;7.59;40.84
21956;BME280;11142;49.930;8.606;2023-02-28T10:51:57;101200.75;;;9.39;38.54
21956;BME280;11142;49.930;8.606;2023-02-28T10:54:28;101194.84;;;7.99;39.64
21956;BME280;11142;49.930;8.606;2023-02-28T10:57:16;101204.19;;;7.28;41.11
21956;BME280;11142;49.930;8.606;2023-02-28T10:59:44;101206.06;;;6.95;42.23
21956;BME280;11142;49.930;8.606;2023-02-28T11:02:32;101197.03;;;6.53;42.89
21956;BME280;11142;49.930;8.606;2023-02-28T11:05:03;101170.13;;;6.32;42.53
21956;BME280;11142;49.930;8.606;2023-02-28T11:07:52;101184.31;;;5.86;44.58
21956;BME280;11142;49.930;8.606;2023-02-28T11:10:23;101198.28;;;6.97;43.47
21956;BME280;11142;49.930;8.606;2023-02-28T11:12:54;101190.44;;;8.96;38.63
21956;BME280;11142;49.930;8.606;2023-02-28T11:15:26;101191.09;;;9.23;37.31
21956;BME280;11142;49.930;8.606;2023-02-28T11:17:57;101176.81;;;9.75;37.01
21956;BME280;11142;49.930;8.606;2023-02-28T11:20:28;101178.97;;;9.85;35.60
21956;BME280;11142;49.930;8.606;2023-02-28T11:22:59;101174.59;;;10.82;35.71
21956;BME280;11142;49.930;8.606;2023-02-28T11:25:30;101178.53;;;10.91;34.35
21956;BME280;11142;49.930;8.606;2023-02-28T11:28:01;101179.69;;;9.89;35.26
21956;BME280;11142;49.930;8.606;2023-02-28T11:30:36;101181.31;;;9.29;35.84
21956;BME280;11142;49.930;8.606;2023-02-28T11:33:21;101180.34;;;10.89;33.69
21956;BME280;11142;49.930;8.606;2023-02-28T11:35:51;101165.97;;;8.60;37.21
21956;BME280;11142;49.930;8.606;2023-02-28T11:38:20;101155.22;;;10.89;35.05
21956;BME280;11142;49.930;8.606;2023-02-28T11:41:01;101160.63;;;11.89;33.02
21956;BME280;11142;49.930;8.606;2023-02-28T11:43:39;101174.84;;;12.48;32.87
21956;BME280;11142;49.930;8.606;2023-02-28T11:46:21;101165.91;;;12.05;31.69
21956;BME280;11142;49.930;8.606;2023-02-28T11:48:58;101161.69;;;12.66;31.88
21956;BME280;11142;49.930;8.606;2023-02-28T11:51:33;101162.50;;;12.36;31.42
21956;BME280;11142;49.930;8.606;2023-02-28T11:54:06;101177.03;;;12.40;31.87
21956;BME280;11142;49.930;8.606;2023-02-28T11:56:41;101179.97;;;12.01;32.07
21956;BME280;11142;49.930;8.606;2023-02-28T11:59:15;101168.88;;;13.24;31.22
21956;BME280;11142;49.930;8.606;2023-02-28T12:01:58;101173.28;;;13.67;30.42
21956;BME280;11142;49.930;8.606;2023-02-28T12:04:30;101158.03;;;12.22;31.80
21956;BME280;11142;49.930;8.606;2023-02-28T12:07:06;101168.72;;;12.33;31.32
21956;BME280;11142;49.930;8.606;2023-02-28T12:09:40;101161.16;;;11.61;32.08
21956;BME280;11142;49.930;8.606;2023-02-28T12:12:19;101163.50;;;12.33;31.87
21956;BME280;11142;49.930;8.606;2023-02-28T12:14:57;101167.81;;;16.02;27.68
21956;BME280;11142;49.930;8.606;2023-02-28T12:17:30;101154.88;;;14.55;28.10
21956;BME280;11142;49.930;8.606;2023-02-28T12:20:05;101160.59;;;12.70;30.26
21956;BME280;11142;49.930;8.606;2023-02-28T12:22:40;101154.59;;;10.28;33.90
21956;BME280;11142;49.930;8.606;2023-02-28T12:25:21;101150.66;;;12.30;31.05
21956;BME280;11142;49.930;8.606;2023-02-28T12:27:52;101157.00;;;13.78;30.06
21956;BME280;11142;49.930;8.606;2023-02-28T12:30:21;101148.88;;;13.68;29.31
21956;BME280;11142;49.930;8.606;2023-02-28T12:32:53;101143.78;;;11.96;30.27
21956;BME280;11142;49.930;8.606;2023-02-28T12:35:23;101152.41;;;12.14;31.03
21956;BME280;11142;49.930;8.606;2023-02-28T12:37:55;101158.50;;;13.08;30.90
21956;BME280;11142;49.930;8.606;2023-02-28T12:40:25;101123.50;;;12.03;31.14
21956;BME280;11142;49.930;8.606;2023-02-28T12:42:56;101153.66;;;10.85;33.43
21956;BME280;11142;49.930;8.606;2023-02-28T12:45:26;101161.63;;;9.67;33.96
21956;BME280;11142;49.930;8.606;2023-02-28T12:47:55;101144.94;;;10.32;34.05
21956;BME280;11142;49.930;8.606;2023-02-28T12:50:26;101145.34;;;11.66;32.33
21956;BME280;11142;49.930;8.606;2023-02-28T12:53:00;101155.47;;;12.05;31.68
21956;BME280;11142;49.930;8.606;2023-02-28T12:55:35;101146.25;;;14.94;28.92
21956;BME280;11142;49.930;8.606;2023-02-28T12:58:11;101146.47;;;14.91;28.02
21956;BME280;11142;49.930;8.606;2023-02-28T13:00:46;101137.25;;;15.64;27.76
21956;BME280;11142;49.930;8.606;2023-02-28T13:03:35;101130.84;;;14.08;28.67
21956;BME280;11142;49.930;8.606;2023-02-28T13:06:19;101131.75;;;15.42;27.56
21956;BME280;11142;49.930;8.606;2023-02-28T13:11:39;101140.09;;;14.95;28.00
21956;BME280;11142;49.930;8.606;2023-02-28T13:14:23;101137.47;;;11.50;31.85